Maersk Rosario — V2BG2 — position and weather

sailwx.info

Track history (hours):
 
Tides and Currents Weather Stations Pressure Air Temp Water Temp Dewpoint Dewpoint Depression Visibility Wind Speed Wind Dir Waves Ship Positions

Maersk Rosario

Last reported at 2018-Feb-15 12:18 UTC. Time now 2018-Feb-22 09:20 UTC.
Position N 29°29' W 012°22'.

Length 161.1 m; beam 25 m; draft 9.5 m.

Type: Cargo ship. MMSI: 304814000.

Date/timePositionNaut miles runAvg speedWind from/ knotsBaromVisibWave heightAir tempDewpointWater temp
2018-Feb-15 12:18N 29°29' W 012°22'413.4
2018-Feb-15 11:59N 29°26' W 012°24'613.3
2018-Feb-15 11:30N 29°21' W 012°29'713.4
2018-Feb-15 11:00N 29°15' W 012°33'1213.5
2018-Feb-15 10:05N 29°05' W 012°41'113.5
2018-Feb-15 09:58N 29°04' W 012°42'613.4
2018-Feb-15 09:29N 28°59' W 012°47'3313.4
2018-Feb-15 07:00N 28°31' W 013°09'1713.8
2018-Feb-15 05:47N 28°18' W 013°20'513.6
2018-Feb-15 05:24N 28°13' W 013°23'913.6
2018-Feb-15 04:43N 28°06' W 013°29'313.3
2018-Feb-15 04:29N 28°03' W 013°31'613.1
2018-Feb-15 04:00N 27°58' W 013°35'2913.0
2018-Feb-15 01:45N 27°34' W 013°54'313.4
2018-Feb-15 01:30N 27°31' W 013°56'713.6
2018-Feb-15 01:00N 27°26' W 014°00'1213.6
2018-Feb-15 00:09N 27°15' W 014°07'313.4
2018-Feb-14 23:58N 27°13' W 014°08'3212.7
2018-Feb-14 21:27N 26°48' W 014°30'612.8
2018-Feb-14 20:59N 26°43' W 014°35'  
Track history (hours):
 
Tides and Currents Weather Stations Pressure Air Temp Water Temp Dewpoint Dewpoint Depression Visibility Wind Speed Wind Dir Waves Ship Positions

Maersk Rosario

Last reported at 2018-Feb-15 12:18 UTC. Time now 2018-Feb-22 09:20 UTC.
Position N 29°29' W 012°22'.

Length 161.1 m; beam 25 m; draft 9.5 m.

Type: Cargo ship. MMSI: 304814000.

Date/timePositionNaut miles runAvg speedWind from/ knotsBaromVisibWave heightAir tempDewpointWater temp
2018-Feb-15 12:18N 29°29' W 012°22'413.4
2018-Feb-15 11:59N 29°26' W 012°24'613.3
2018-Feb-15 11:30N 29°21' W 012°29'713.4
2018-Feb-15 11:00N 29°15' W 012°33'1213.5
2018-Feb-15 10:05N 29°05' W 012°41'113.5
2018-Feb-15 09:58N 29°04' W 012°42'613.4
2018-Feb-15 09:29N 28°59' W 012°47'3313.4
2018-Feb-15 07:00N 28°31' W 013°09'1713.8
2018-Feb-15 05:47N 28°18' W 013°20'513.6
2018-Feb-15 05:24N 28°13' W 013°23'913.6
2018-Feb-15 04:43N 28°06' W 013°29'313.3
2018-Feb-15 04:29N 28°03' W 013°31'613.1
2018-Feb-15 04:00N 27°58' W 013°35'2913.0
2018-Feb-15 01:45N 27°34' W 013°54'313.4
2018-Feb-15 01:30N 27°31' W 013°56'713.6
2018-Feb-15 01:00N 27°26' W 014°00'1213.6
2018-Feb-15 00:09N 27°15' W 014°07'313.4
2018-Feb-14 23:58N 27°13' W 014°08'3212.7
2018-Feb-14 21:27N 26°48' W 014°30'612.8
2018-Feb-14 20:59N 26°43' W 014°35'  

Dump ship's entire track history